Time;durP1;ratioP1;P1;durP2;ratioP2;P2;SDS_P1;SDS_P2;PMS_P1;PMS_P2;Temp;Humidity;BMP_temperature;BMP_pressure;BME280_temperature;BME280_humidity;BME280_pressure;Samples;Min_cycle;Max_cycle;Signal;HPM_P1;HPM_P2
2023/04/16 00:00:25;;;;;;;4.95;4.70;;;10.80;59.10;;;;;;20604;6821;282823;-78
2023/04/16 00:02:50;;;;;;;4.50;4.30;;;10.80;59.40;;;;;;20842;6821;113015;-78
2023/04/16 00:05:16;;;;;;;4.80;4.60;;;10.70;59.80;;;;;;20614;6821;306526;-78
2023/04/16 00:07:41;;;;;;;4.50;4.30;;;10.70;59.50;;;;;;20786;6821;122715;-78
2023/04/16 00:10:07;;;;;;;4.50;4.20;;;10.60;59.70;;;;;;20808;6821;118286;-78
2023/04/16 00:12:33;;;;;;;4.30;4.10;;;10.30;60.40;;;;;;20804;6821;117090;-78
2023/04/16 00:14:58;;;;;;;5.40;5.10;;;10.10;61.10;;;;;;20594;6821;341359;-78
2023/04/16 00:17:24;;;;;;;4.90;4.60;;;10.20;61.20;;;;;;20789;6821;117720;-79
2023/04/16 00:19:50;;;;;;;4.50;4.30;;;10.10;61.90;;;;;;20799;6821;117316;-78
2023/04/16 00:22:16;;;;;;;5.70;5.40;;;10.00;62.10;;;;;;20579;6821;326843;-79
2023/04/16 00:24:41;;;;;;;5.40;5.10;;;10.20;61.90;;;;;;20793;6821;117274;-78
2023/04/16 00:27:07;;;;;;;5.80;5.50;;;10.30;61.80;;;;;;20587;6821;307069;-79
2023/04/16 00:29:33;;;;;;;4.90;4.60;;;10.40;61.70;;;;;;20786;6820;118585;-79
2023/04/16 00:31:59;;;;;;;6.00;5.70;;;10.50;61.00;;;;;;20585;6820;341573;-78
2023/04/16 00:34:24;;;;;;;6.50;6.10;;;10.50;60.90;;;;;;20589;6821;336091;-78
2023/04/16 00:36:50;;;;;;;5.60;5.30;;;10.70;60.50;;;;;;20804;6821;116866;-79
2023/04/16 00:39:17;;;;;;;4.47;4.27;;;10.60;60.40;;;;;;20803;6821;118706;-78
2023/04/16 00:41:43;;;;;;;6.10;5.80;;;10.40;60.90;;;;;;20598;6821;290711;-78
2023/04/16 00:44:10;;;;;;;6.72;6.35;;;10.40;60.80;;;;;;20595;6821;278365;-78
2023/04/16 00:46:35;;;;;;;5.30;5.00;;;10.70;60.20;;;;;;20807;6821;117305;-78
2023/04/16 00:49:01;;;;;;;5.03;4.73;;;10.60;60.20;;;;;;20798;6821;117513;-79
2023/04/16 00:51:26;;;;;;;6.70;6.30;;;10.30;60.80;;;;;;20582;6821;336164;-78
2023/04/16 00:53:52;;;;;;;6.93;6.53;;;10.60;60.10;;;;;;20585;6821;281623;-78
2023/04/16 00:56:18;;;;;;;7.12;6.72;;;10.60;60.60;;;;;;20579;6821;278414;-78
2023/04/16 00:58:44;;;;;;;5.37;5.07;;;10.70;60.00;;;;;;20791;6821;122770;-79
2023/04/16 01:01:10;;;;;;;5.60;5.20;;;10.70;60.00;;;;;;20794;6821;117098;-79
2023/04/16 01:03:39;;;;;;;5.70;5.30;;;10.40;60.90;;;;;;20786;6821;118715;-79
2023/04/16 01:06:04;;;;;;;6.30;6.00;;;10.20;61.60;;;;;;20567;6821;289854;-79
2023/04/16 01:08:30;;;;;;;5.40;5.10;;;10.30;62.00;;;;;;20797;6821;117695;-79
2023/04/16 01:10:56;;;;;;;5.23;4.93;;;10.30;61.80;;;;;;20800;6821;117218;-80
2023/04/16 01:13:22;;;;;;;6.73;6.33;;;10.30;62.00;;;;;;20562;6821;277945;-78
2023/04/16 01:15:47;;;;;;;6.72;6.32;;;10.20;62.00;;;;;;20575;6821;306604;-79
2023/04/16 01:18:16;;;;;;;7.03;6.62;;;10.60;61.00;;;;;;20585;6821;337327;-78
2023/04/16 01:20:42;;;;;;;6.03;5.63;;;10.90;60.30;;;;;;20794;6821;120618;-78
2023/04/16 01:23:08;;;;;;;5.30;5.00;;;10.70;60.40;;;;;;20802;6821;116960;-78
2023/04/16 01:25:34;;;;;;;6.40;6.00;;;10.40;61.10;;;;;;20569;6821;307438;-79
2023/04/16 01:28:00;;;;;;;7.07;6.68;;;10.50;60.90;;;;;;20598;6821;306956;-78
2023/04/16 01:30:25;;;;;;;5.80;5.50;;;10.70;60.20;;;;;;20806;6821;117077;-78
2023/04/16 01:32:51;;;;;;;5.27;4.97;;;10.30;61.20;;;;;;20787;6821;122041;-79
2023/04/16 01:35:17;;;;;;;7.77;7.27;;;10.30;61.20;;;;;;20800;6821;117406;-80
2023/04/16 01:37:42;;;;;;;6.25;5.95;;;10.10;62.20;;;;;;20241;6821;281445;-79
2023/04/16 01:40:08;;;;;;;5.85;5.55;;;10.30;61.90;;;;;;20582;6819;340391;-79
2023/04/16 01:42:34;;;;;;;6.37;6.07;;;10.60;61.10;;;;;;20578;6820;307034;-79
2023/04/16 01:44:59;;;;;;;5.07;4.67;;;10.90;59.90;;;;;;20798;6820;116917;-79
2023/04/16 01:47:25;;;;;;;4.87;4.57;;;10.70;59.80;;;;;;20780;6821;117173;-79
2023/04/16 01:49:51;;;;;;;6.37;6.07;;;10.40;60.80;;;;;;20593;6821;307500;-79
2023/04/16 01:52:17;;;;;;;6.10;5.80;;;10.50;60.90;;;;;;20584;6821;306066;-79
2023/04/16 01:54:42;;;;;;;5.47;5.18;;;10.80;59.90;;;;;;20732;6821;117024;-78
2023/04/16 01:57:10;;;;;;;5.22;4.93;;;10.70;59.90;;;;;;20796;6821;117084;-78
2023/04/16 01:59:35;;;;;;;5.03;4.73;;;10.40;60.70;;;;;;20774;6821;118581;-79
2023/04/16 02:02:01;;;;;;;6.03;5.73;;;10.30;61.90;;;;;;20586;6821;278410;-79
2023/04/16 02:04:27;;;;;;;6.57;6.27;;;10.30;61.90;;;;;;20569;6821;293278;-79
2023/04/16 02:06:52;;;;;;;5.43;5.13;;;10.60;60.80;;;;;;20805;6821;117750;-79
2023/04/16 02:09:19;;;;;;;6.05;5.75;;;10.70;60.80;;;;;;20592;6821;336404;-80
2023/04/16 02:11:44;;;;;;;5.33;5.03;;;10.60;60.70;;;;;;20632;6821;117312;-79
2023/04/16 02:14:10;;;;;;;6.30;5.90;;;10.60;60.90;;;;;;20593;6821;307884;-79
2023/04/16 02:16:36;;;;;;;6.14;5.84;;;10.90;59.90;;;;;;20588;6821;336976;-78
2023/04/16 02:19:03;;;;;;;5.47;5.17;;;10.90;59.90;;;;;;20796;6821;119059;-78
2023/04/16 02:21:27;;;;;;;5.90;5.60;;;10.80;60.10;;;;;;20568;6821;297037;-78
2023/04/16 02:23:53;;;;;;;6.00;5.70;;;10.90;60.20;;;;;;20583;6821;278347;-78
2023/04/16 02:26:18;;;;;;;4.87;4.50;;;11.10;60.00;;;;;;20803;6821;119402;-77
2023/04/16 02:28:45;;;;;;;5.60;5.30;;;10.90;59.90;;;;;;20591;6821;340042;-79
2023/04/16 02:31:11;;;;;;;5.47;5.20;;;10.90;59.70;;;;;;20582;6821;306999;-78
2023/04/16 02:33:36;;;;;;;5.27;5.00;;;11.10;59.10;;;;;;20560;6821;307375;-79
2023/04/16 02:36:02;;;;;;;4.50;4.25;;;11.30;58.50;;;;;;20794;6821;117315;-78
2023/04/16 02:38:28;;;;;;;5.18;4.87;;;11.00;58.80;;;;;;20586;6821;343133;-83
2023/04/16 02:40:53;;;;;;;4.03;3.83;;;11.00;59.20;;;;;;20803;6821;118054;-80
2023/04/16 02:43:19;;;;;;;4.00;3.70;;;10.80;59.70;;;;;;20777;6821;122996;-80
2023/04/16 02:45:44;;;;;;;5.20;4.80;;;10.50;60.70;;;;;;20587;6821;307836;-79
2023/04/16 02:48:11;;;;;;;3.90;3.70;;;10.50;60.90;;;;;;20800;6821;117313;-79
2023/04/16 02:50:36;;;;;;;3.70;3.50;;;10.50;60.90;;;;;;20798;6819;117387;-78
2023/04/16 02:53:03;;;;;;;4.00;3.70;;;10.30;61.30;;;;;;20799;6820;116968;-79
2023/04/16 02:55:28;;;;;;;4.40;4.20;;;10.10;62.30;;;;;;20562;6820;309528;-80
2023/04/16 02:57:53;;;;;;;3.60;3.40;;;10.20;62.50;;;;;;20798;6821;117255;-79
2023/04/16 03:00:19;;;;;;;4.23;4.03;;;10.20;62.30;;;;;;20583;6821;336615;-79
2023/04/16 03:02:44;;;;;;;4.40;4.20;;;10.40;62.10;;;;;;20575;6821;307484;-79
2023/04/16 03:05:11;;;;;;;3.80;3.60;;;10.60;60.90;;;;;;20800;6821;117640;-79
2023/04/16 03:07:38;;;;;;;4.30;4.10;;;10.60;60.90;;;;;;20562;6821;311218;-80
2023/04/16 03:10:02;;;;;;;4.20;4.00;;;10.60;60.60;;;;;;20564;6821;277966;-80
2023/04/16 03:12:27;;;;;;;3.40;3.20;;;10.80;60.30;;;;;;20769;6821;117126;-79
2023/04/16 03:14:53;;;;;;;3.25;3.15;;;10.70;60.40;;;;;;20778;6821;119151;-79
2023/04/16 03:17:19;;;;;;;4.20;4.00;;;10.40;61.50;;;;;;20545;6821;277310;-80
2023/04/16 03:19:44;;;;;;;4.40;4.20;;;10.50;61.30;;;;;;20510;6821;307295;-80
2023/04/16 03:22:10;;;;;;;4.67;4.47;;;10.80;60.70;;;;;;20563;6821;307300;-79
2023/04/16 03:24:37;;;;;;;4.10;3.90;;;11.00;59.80;;;;;;20575;6821;307037;-79
2023/04/16 03:27:01;;;;;;;4.60;4.40;;;11.20;59.00;;;;;;20570;6821;337316;-79
2023/04/16 03:29:26;;;;;;;4.47;4.27;;;11.30;59.20;;;;;;20564;6821;312096;-79
2023/04/16 03:31:52;;;;;;;3.70;3.50;;;11.30;58.30;;;;;;20794;6821;117457;-79
2023/04/16 03:34:18;;;;;;;4.70;4.50;;;11.10;58.90;;;;;;20579;6821;336465;-78
2023/04/16 03:36:43;;;;;;;4.62;4.35;;;11.00;58.90;;;;;;20591;6821;336459;-78
2023/04/16 03:39:09;;;;;;;3.57;3.37;;;11.10;58.70;;;;;;20803;6821;117388;-79
2023/04/16 03:41:34;;;;;;;3.50;3.30;;;10.90;59.10;;;;;;20785;6821;116891;-79
2023/04/16 03:44:00;;;;;;;4.45;4.25;;;10.60;60.10;;;;;;20604;6821;307965;-79
2023/04/16 03:46:26;;;;;;;3.67;3.47;;;10.50;60.60;;;;;;20812;6821;117965;-79
2023/04/16 03:48:52;;;;;;;4.20;4.00;;;10.50;60.60;;;;;;20807;6821;117149;-79
2023/04/16 03:51:17;;;;;;;4.70;4.40;;;10.20;61.10;;;;;;20582;6821;311290;-80
2023/04/16 03:53:44;;;;;;;5.20;4.90;;;10.60;60.60;;;;;;20565;6821;317238;-78
2023/04/16 03:56:09;;;;;;;5.20;4.90;;;10.50;60.50;;;;;;20580;6821;307017;-79
2023/04/16 03:58:35;;;;;;;5.30;4.90;;;10.80;60.00;;;;;;20588;6821;277777;-79
2023/04/16 04:01:00;;;;;;;5.10;4.80;;;11.00;59.10;;;;;;20587;6821;308304;-79
2023/04/16 04:03:27;;;;;;;4.97;4.67;;;10.90;59.30;;;;;;20785;6819;117466;-80
2023/04/16 04:05:52;;;;;;;4.63;4.33;;;10.90;59.30;;;;;;20802;6820;117707;-79
2023/04/16 04:08:19;;;;;;;4.50;4.23;;;10.20;61.00;;;;;;20803;6820;117011;-80
2023/04/16 04:10:44;;;;;;;6.07;5.68;;;10.20;61.00;;;;;;20593;6821;306190;-79
2023/04/16 04:13:10;;;;;;;6.50;6.10;;;10.50;60.70;;;;;;20583;6821;311208;-79
2023/04/16 04:15:37;;;;;;;5.50;5.20;;;10.50;60.70;;;;;;20784;6821;123043;-79
2023/04/16 04:18:03;;;;;;;4.90;4.50;;;10.40;60.50;;;;;;20804;6821;116481;-79
2023/04/16 04:20:28;;;;;;;5.97;5.67;;;10.10;61.30;;;;;;20581;6821;306498;-80
2023/04/16 04:22:54;;;;;;;6.83;6.33;;;10.20;61.60;;;;;;20590;6821;277409;-79
2023/04/16 04:25:19;;;;;;;5.70;5.30;;;10.40;60.70;;;;;;20780;6821;117196;-80
2023/04/16 04:27:45;;;;;;;4.90;4.60;;;10.30;60.70;;;;;;20803;6821;117930;-79
2023/04/16 04:30:11;;;;;;;6.18;5.80;;;10.00;61.60;;;;;;20592;6821;307427;-79
2023/04/16 04:32:36;;;;;;;5.00;4.70;;;10.10;62.00;;;;;;20795;6821;117067;-79
2023/04/16 04:35:02;;;;;;;6.50;6.10;;;10.00;61.90;;;;;;20594;6821;307001;-79
2023/04/16 04:37:28;;;;;;;6.83;6.43;;;10.40;62.10;;;;;;20582;6821;287357;-80
2023/04/16 04:39:55;;;;;;;6.62;6.22;;;10.60;60.40;;;;;;20592;6821;341376;-80
2023/04/16 04:42:20;;;;;;;4.90;4.60;;;10.60;60.40;;;;;;20806;6821;117519;-76
2023/04/16 04:44:46;;;;;;;4.93;4.57;;;10.40;60.50;;;;;;20784;6821;117108;-78
2023/04/16 04:47:13;;;;;;;5.97;5.60;;;10.10;61.50;;;;;;20582;6821;307513;-78
2023/04/16 04:49:39;;;;;;;6.12;5.72;;;10.40;61.00;;;;;;20558;6821;305122;-77
2023/04/16 04:52:05;;;;;;;5.23;4.93;;;10.40;61.00;;;;;;20793;6821;117214;-78
2023/04/16 04:54:31;;;;;;;4.45;4.15;;;10.00;62.30;;;;;;20795;6821;117186;-77
2023/04/16 04:56:56;;;;;;;5.00;4.70;;;10.00;61.70;;;;;;20790;6821;117398;-78
2023/04/16 04:59:22;;;;;;;4.33;4.03;;;9.70;63.50;;;;;;20782;6821;117629;-78
2023/04/16 05:01:47;;;;;;;4.37;4.17;;;9.50;64.20;;;;;;20795;6821;120893;-78
2023/04/16 05:04:15;;;;;;;5.73;5.40;;;9.40;65.00;;;;;;20590;6821;278015;-78
2023/04/16 05:06:40;;;;;;;5.57;5.28;;;9.60;65.00;;;;;;20587;6821;307083;-79
2023/04/16 05:09:10;;;;;;;5.03;4.73;;;9.90;63.40;;;;;;20791;6821;116873;-82
2023/04/16 05:11:32;;;;;;;5.80;5.50;;;9.90;63.40;;;;;;20553;6821;307445;-79
2023/04/16 05:13:58;;;;;;;5.93;5.62;;;10.10;62.70;;;;;;20580;6819;306017;-79
2023/04/16 05:16:23;;;;;;;5.15;4.75;;;10.40;61.50;;;;;;20793;6820;117484;-78
2023/04/16 05:18:49;;;;;;;6.00;5.62;;;10.20;61.40;;;;;;20588;6820;311233;-78
2023/04/16 05:21:18;;;;;;;5.27;4.97;;;10.30;61.30;;;;;;20797;6821;117602;-80
2023/04/16 05:23:43;;;;;;;5.60;5.28;;;10.20;61.60;;;;;;20598;6821;278314;-82
2023/04/16 05:26:09;;;;;;;6.00;5.60;;;10.50;61.10;;;;;;20587;6821;336889;-79
2023/04/16 05:28:35;;;;;;;4.90;4.50;;;10.50;61.10;;;;;;20804;6821;117082;-79
2023/04/16 05:31:01;;;;;;;6.00;5.60;;;10.30;61.20;;;;;;20602;6821;277458;-79
2023/04/16 05:33:26;;;;;;;4.80;4.50;;;10.40;61.10;;;;;;20782;6821;117195;-80
2023/04/16 05:35:52;;;;;;;6.12;5.68;;;10.20;61.20;;;;;;20587;6821;307122;-76
2023/04/16 05:38:19;;;;;;;6.43;5.93;;;10.30;61.30;;;;;;20586;6821;337005;-76
2023/04/16 05:40:44;;;;;;;5.00;4.70;;;10.50;61.00;;;;;;20791;6821;117951;-73
2023/04/16 05:43:10;;;;;;;6.13;5.73;;;10.30;61.00;;;;;;20584;6821;280424;-74
2023/04/16 05:45:39;;;;;;;5.43;5.03;;;10.30;61.40;;;;;;20774;6821;120948;-73
2023/04/16 05:48:02;;;;;;;5.90;5.50;;;10.20;61.80;;;;;;20563;6821;336842;-73
2023/04/16 05:50:29;;;;;;;6.70;6.30;;;10.50;61.40;;;;;;20575;6821;308377;-73
2023/04/16 05:52:54;;;;;;;6.43;5.93;;;10.50;61.00;;;;;;20577;6821;331141;-74
2023/04/16 05:55:20;;;;;;;5.03;4.73;;;10.70;60.50;;;;;;20771;6821;117638;-75
2023/04/16 05:57:45;;;;;;;9.17;8.47;;;10.50;60.10;;;;;;20580;6821;306846;-74
2023/04/16 06:00:12;;;;;;;19.80;17.90;;;10.60;60.60;;;;;;20596;6821;277955;-78
2023/04/16 06:02:37;;;;;;;9.97;9.07;;;10.70;60.70;;;;;;20789;6821;121444;-76
2023/04/16 06:05:03;;;;;;;26.43;23.67;;;10.50;60.80;;;;;;20579;6821;278448;-78
2023/04/16 06:07:29;;;;;;;19.37;17.67;;;10.60;60.90;;;;;;20558;6821;307488;-77
2023/04/16 06:09:55;;;;;;;19.93;17.70;;;10.60;60.90;;;;;;20798;6821;118091;-75
2023/04/16 06:12:21;;;;;;;12.97;11.80;;;10.10;62.40;;;;;;20786;6821;123584;-82
2023/04/16 06:14:48;;;;;;;11.90;10.90;;;10.20;61.80;;;;;;20572;6821;306850;-78
2023/04/16 06:17:14;;;;;;;11.13;10.23;;;10.20;62.20;;;;;;20581;6821;306733;-76
2023/04/16 06:19:41;;;;;;;9.77;8.93;;;10.30;61.60;;;;;;20754;6821;120050;-73
2023/04/16 06:22:08;;;;;;;10.07;9.17;;;10.30;61.60;;;;;;20656;6821;117689;-76
2023/04/16 06:24:34;;;;;;;9.57;8.60;;;10.00;62.50;;;;;;20776;6821;117281;-76
2023/04/16 06:26:59;;;;;;;14.55;13.23;;;9.80;64.30;;;;;;20585;6819;283853;-74
2023/04/16 06:29:25;;;;;;;16.13;14.53;;;9.90;64.80;;;;;;20559;6820;311967;-77
2023/04/16 06:31:51;;;;;;;16.87;15.18;;;10.20;63.10;;;;;;20581;6820;311353;-75
2023/04/16 06:34:17;;;;;;;17.83;16.03;;;10.50;61.90;;;;;;20575;6821;307221;-72
2023/04/16 06:36:43;;;;;;;16.07;13.50;;;10.70;61.40;;;;;;20792;6821;117389;-73
2023/04/16 06:39:08;;;;;;;15.05;13.45;;;10.50;61.20;;;;;;20799;6821;118205;-75
2023/04/16 06:41:35;;;;;;;15.37;13.17;;;10.20;62.50;;;;;;20764;6821;117396;-75
2023/04/16 06:44:01;;;;;;;21.83;17.70;;;9.90;64.40;;;;;;20511;6821;281590;-72
2023/04/16 06:46:26;;;;;;;21.33;18.87;;;10.00;63.70;;;;;;20536;6821;293247;-73
2023/04/16 06:48:52;;;;;;;18.25;15.52;;;10.30;63.20;;;;;;20747;6821;121363;-70
2023/04/16 06:51:17;;;;;;;17.13;14.33;;;10.20;63.20;;;;;;20729;6821;118545;-74
2023/04/16 06:53:43;;;;;;;14.43;12.93;;;10.00;64.20;;;;;;20595;6821;117720;-74
2023/04/16 06:56:09;;;;;;;12.32;11.10;;;9.90;66.10;;;;;;20750;6821;118007;-74
2023/04/16 06:58:35;;;;;;;13.80;12.30;;;9.70;66.20;;;;;;20758;6821;117354;-74
2023/04/16 07:01:01;;;;;;;18.70;15.90;;;9.60;66.60;;;;;;20563;6821;318807;-74
2023/04/16 07:03:26;;;;;;;14.33;12.83;;;9.70;66.20;;;;;;20779;6821;118166;-73
2023/04/16 07:05:51;;;;;;;18.75;16.85;;;9.80;65.70;;;;;;20582;6821;278031;-74
2023/04/16 07:08:16;;;;;;;16.87;13.23;;;9.90;65.60;;;;;;20795;6821;117250;-73
2023/04/16 07:10:42;;;;;;;18.52;16.62;;;10.00;64.30;;;;;;20586;6821;277564;-75
2023/04/16 07:13:08;;;;;;;15.73;14.23;;;10.10;63.90;;;;;;20787;6821;117639;-74
2023/04/16 07:15:34;;;;;;;18.57;16.73;;;10.10;63.10;;;;;;20561;6821;312420;-76
2023/04/16 07:17:59;;;;;;;21.15;19.00;;;10.10;63.60;;;;;;20581;6821;337240;-76
2023/04/16 07:20:26;;;;;;;16.53;14.83;;;10.30;62.80;;;;;;20792;6821;117937;-72
2023/04/16 07:22:51;;;;;;;19.90;17.80;;;10.30;62.80;;;;;;20585;6821;278212;-72
2023/04/16 07:25:17;;;;;;;17.27;15.47;;;10.40;62.80;;;;;;20792;6821;118079;-72
2023/04/16 07:27:42;;;;;;;20.83;18.63;;;10.30;63.10;;;;;;20557;6821;312347;-72
2023/04/16 07:30:08;;;;;;;16.77;15.07;;;10.40;62.80;;;;;;20793;6821;117513;-72
2023/04/16 07:32:34;;;;;;;21.20;18.90;;;10.40;62.90;;;;;;20579;6821;280725;-72
2023/04/16 07:35:00;;;;;;;18.00;15.60;;;10.30;62.80;;;;;;20791;6821;118992;-73
2023/04/16 07:37:25;;;;;;;21.77;19.65;;;10.30;63.00;;;;;;20545;6819;337072;-74
2023/04/16 07:39:51;;;;;;;22.90;20.50;;;10.30;62.70;;;;;;20577;6820;338458;-74
2023/04/16 07:42:17;;;;;;;23.33;20.90;;;10.60;62.20;;;;;;20589;6820;278958;-73
2023/04/16 07:44:42;;;;;;;22.40;20.20;;;10.80;61.60;;;;;;20570;6821;309365;-74
2023/04/16 07:47:09;;;;;;;20.70;16.83;;;10.80;60.90;;;;;;20786;6821;117447;-74
2023/04/16 07:49:34;;;;;;;17.80;15.37;;;10.80;60.90;;;;;;20771;6821;117700;-72
2023/04/16 07:52:00;;;;;;;22.77;20.08;;;10.50;61.80;;;;;;20582;6821;307497;-74
2023/04/16 07:54:25;;;;;;;24.27;21.80;;;10.50;62.30;;;;;;20592;6821;277487;-74
2023/04/16 07:56:52;;;;;;;24.50;22.00;;;10.90;61.80;;;;;;20582;6821;280451;-73
2023/04/16 07:59:18;;;;;;;24.40;21.90;;;11.20;61.10;;;;;;20579;6821;309767;-74
2023/04/16 08:01:45;;;;;;;18.53;16.63;;;11.20;60.90;;;;;;20533;6892;69020;-72
2023/04/16 08:04:13;;;;;;;22.57;20.37;;;11.00;61.20;;;;;;20405;6821;278188;-72
2023/04/16 08:06:41;;;;;;;18.67;16.73;;;11.00;61.20;;;;;;20765;6821;117993;-72
2023/04/16 08:09:08;;;;;;;17.17;15.37;;;10.80;61.50;;;;;;20766;6821;119426;-72
2023/04/16 08:11:37;;;;;;;17.10;15.30;;;10.60;62.40;;;;;;20715;6821;120583;-72
2023/04/16 08:14:05;;;;;;;21.37;19.20;;;10.30;63.10;;;;;;20211;6823;310640;-73
2023/04/16 08:16:31;;;;;;;17.23;15.43;;;10.40;63.20;;;;;;20788;6821;117479;-72
2023/04/16 08:18:57;;;;;;;20.50;18.50;;;10.40;63.20;;;;;;20553;6821;306971;-74
2023/04/16 08:21:23;;;;;;;18.50;16.52;;;10.60;62.80;;;;;;20754;6821;119135;-71
2023/04/16 08:23:49;;;;;;;15.53;14.07;;;10.30;63.10;;;;;;20780;6821;119188;-71
2023/04/16 08:26:16;;;;;;;20.67;18.67;;;10.30;63.10;;;;;;20571;6821;281331;-71
2023/04/16 08:28:40;;;;;;;22.10;19.87;;;10.50;63.10;;;;;;20563;6821;281637;-72
2023/04/16 08:31:07;;;;;;;21.98;19.92;;;11.00;60.80;;;;;;20557;6821;307520;-71
2023/04/16 08:33:32;;;;;;;20.70;16.67;;;11.00;60.80;;;;;;20747;6821;118948;-72
2023/04/16 08:35:58;;;;;;;17.35;15.60;;;10.90;61.00;;;;;;20786;6821;117554;-72
2023/04/16 08:38:23;;;;;;;16.77;14.97;;;10.60;61.90;;;;;;20786;6821;119104;-70
2023/04/16 08:40:49;;;;;;;21.10;18.90;;;10.30;62.70;;;;;;20571;6821;340053;-72
2023/04/16 08:43:15;;;;;;;22.03;19.83;;;10.70;62.00;;;;;;20577;6821;295134;-73
2023/04/16 08:45:44;;;;;;;21.20;19.27;;;10.70;61.30;;;;;;20560;6821;309191;-73
2023/04/16 08:48:06;;;;;;;17.70;15.90;;;11.00;61.00;;;;;;20762;6821;118704;-74
2023/04/16 08:50:32;;;;;;;20.67;18.77;;;10.90;61.00;;;;;;20580;6819;305660;-76
2023/04/16 08:52:58;;;;;;;17.33;15.57;;;10.90;60.60;;;;;;20787;6821;118520;-77
2023/04/16 08:55:48;;;;;;;20.73;18.73;;;10.90;61.10;;;;;;20545;6821;335454;-76
2023/04/16 08:58:13;;;;;;;21.07;19.03;;;10.90;60.50;;;;;;20574;6821;293358;-77
2023/04/16 09:00:40;;;;;;;17.73;15.53;;;11.00;60.00;;;;;;20776;6821;117274;-76
2023/04/16 09:03:06;;;;;;;24.17;21.87;;;11.00;60.00;;;;;;20570;6821;278977;-77
2023/04/16 09:05:33;;;;;;;21.93;20.03;;;11.00;59.70;;;;;;20552;6821;278387;-75
2023/04/16 09:08:00;;;;;;;17.63;16.00;;;11.20;59.50;;;;;;20796;6821;119003;-74
2023/04/16 09:10:28;;;;;;;16.87;15.10;;;11.10;60.00;;;;;;20773;6821;117332;-75
2023/04/16 09:12:56;;;;;;;19.47;17.77;;;10.80;60.90;;;;;;20576;6821;277747;-74
2023/04/16 09:15:22;;;;;;;19.40;17.80;;;10.90;61.30;;;;;;20526;6821;306983;-74
2023/04/16 09:17:47;;;;;;;16.03;14.53;;;11.10;60.70;;;;;;20787;6821;118111;-74
2023/04/16 09:20:14;;;;;;;15.32;13.93;;;11.10;60.70;;;;;;20785;6821;117493;-77
2023/04/16 09:22:40;;;;;;;14.60;13.10;;;10.80;61.50;;;;;;20786;6821;121640;-75
2023/04/16 09:25:07;;;;;;;14.57;13.17;;;10.60;62.10;;;;;;20790;6821;119187;-76
2023/04/16 09:27:32;;;;;;;14.20;12.80;;;10.40;63.20;;;;;;20762;6821;117839;-74
2023/04/16 09:29:58;;;;;;;14.90;13.40;;;10.30;64.00;;;;;;20789;6821;119139;-74
2023/04/16 09:32:23;;;;;;;15.83;14.53;;;10.20;64.40;;;;;;20578;6821;310009;-74
2023/04/16 09:34:52;;;;;;;16.85;15.30;;;10.50;64.20;;;;;;20572;6821;287276;-74
2023/04/16 09:37:17;;;;;;;16.87;15.48;;;11.00;62.50;;;;;;20578;6821;328119;-75
2023/04/16 09:39:44;;;;;;;14.03;12.77;;;11.40;61.10;;;;;;20785;6821;117869;-75
2023/04/16 09:42:09;;;;;;;14.47;13.07;;;11.40;61.10;;;;;;20784;6821;117375;-73
2023/04/16 09:44:38;;;;;;;12.53;11.43;;;11.20;61.70;;;;;;20788;6821;117920;-73
2023/04/16 09:47:10;;;;;;;16.08;14.52;;;11.40;63.20;;;;;;20562;6821;306085;-76
2023/04/16 09:49:35;;;;;;;12.37;11.33;;;11.30;63.00;;;;;;20743;6821;117664;-74
2023/04/16 09:52:01;;;;;;;14.30;13.10;;;11.70;61.40;;;;;;20533;6821;314516;-73
2023/04/16 09:54:27;;;;;;;15.97;14.57;;;11.70;60.80;;;;;;20586;6814;312234;-76
2023/04/16 09:56:52;;;;;;;13.35;12.10;;;12.00;59.80;;;;;;20733;6833;119808;-74
2023/04/16 09:59:22;;;;;;;15.02;13.82;;;12.00;60.50;;;;;;20524;6833;309568;-75
2023/04/16 10:01:54;;;;;;;14.80;13.60;;;12.00;60.10;;;;;;20585;6814;311315;-72
2023/04/16 10:04:17;;;;;;;12.00;10.90;;;12.20;58.90;;;;;;20751;6816;119409;-72
2023/04/16 10:07:06;;;;;;;13.83;12.73;;;12.20;58.90;;;;;;20562;6816;306160;-72
2023/04/16 10:09:55;;;;;;;13.10;12.10;;;12.20;59.30;;;;;;20596;6816;280210;-73
2023/04/16 10:12:22;;;;;;;13.33;12.33;;;12.70;57.50;;;;;;20536;6833;311366;-74
2023/04/16 10:14:48;;;;;;;11.53;10.47;;;12.70;57.50;;;;;;20754;6833;117490;-77
2023/04/16 10:17:14;;;;;;;11.27;10.17;;;12.60;58.00;;;;;;20748;6833;117913;-73
2023/04/16 10:19:40;;;;;;;11.45;10.40;;;12.30;58.50;;;;;;20777;6818;117580;-74
2023/04/16 10:22:06;;;;;;;11.27;10.27;;;12.00;59.40;;;;;;20664;6833;117974;-74
2023/04/16 10:24:32;;;;;;;14.23;13.13;;;11.90;60.20;;;;;;20556;6826;312677;-75
2023/04/16 10:26:57;;;;;;;13.55;12.45;;;12.00;58.90;;;;;;20553;6826;278119;-74
2023/04/16 10:29:24;;;;;;;28.83;26.00;;;12.20;58.80;;;;;;20749;6826;117605;-71
2023/04/16 10:31:49;;;;;;;33.00;30.20;;;12.20;58.20;;;;;;20539;6826;278093;-72
2023/04/16 10:34:15;;;;;;;29.83;27.20;;;12.20;57.50;;;;;;20568;6826;277712;-73
2023/04/16 10:36:40;;;;;;;27.57;24.83;;;12.40;57.20;;;;;;20775;6826;117471;-72
2023/04/16 10:39:09;;;;;;;17.03;15.40;;;12.30;57.50;;;;;;20769;6826;117631;-72
2023/04/16 10:41:36;;;;;;;18.43;16.67;;;12.10;58.60;;;;;;20503;6827;306454;-75
2023/04/16 10:44:11;;;;;;;16.33;14.77;;;12.20;58.30;;;;;;20754;6827;117976;-77
2023/04/16 10:46:37;;;;;;;16.23;14.67;;;12.20;58.80;;;;;;20821;6811;117875;-72
2023/04/16 10:49:23;;;;;;;20.37;18.57;;;12.10;59.30;;;;;;20495;6811;306733;-74
2023/04/16 10:51:52;;;;;;;17.77;16.27;;;12.50;57.60;;;;;;20596;6811;308230;-72
2023/04/16 10:54:18;;;;;;;19.03;17.20;;;12.50;57.60;;;;;;20608;6811;316638;-75
2023/04/16 10:56:43;;;;;;;14.97;13.57;;;12.70;56.10;;;;;;20808;6811;121903;-72
2023/04/16 10:59:10;;;;;;;17.42;15.93;;;12.60;56.20;;;;;;20611;6811;307214;-73
2023/04/16 11:01:35;;;;;;;14.73;13.33;;;12.50;56.70;;;;;;20802;6811;119229;-72
2023/04/16 11:04:01;;;;;;;14.30;12.87;;;12.40;57.40;;;;;;20827;6811;117519;-72
2023/04/16 11:06:26;;;;;;;13.73;12.32;;;12.10;58.10;;;;;;20740;6811;117545;-73
2023/04/16 11:08:52;;;;;;;14.30;12.87;;;11.90;58.70;;;;;;20830;6811;118915;-72
2023/04/16 11:11:17;;;;;;;16.40;14.80;;;11.60;59.10;;;;;;20845;6811;121749;-72
2023/04/16 11:13:44;;;;;;;14.68;13.27;;;11.50;59.90;;;;;;20809;6809;117406;-72
2023/04/16 11:16:09;;;;;;;12.83;11.63;;;11.20;60.50;;;;;;20818;6811;117369;-72
2023/04/16 11:18:36;;;;;;;14.10;12.70;;;11.20;60.50;;;;;;20835;6811;119677;-71
2023/04/16 11:21:04;;;;;;;16.30;14.70;;;11.00;61.00;;;;;;20826;6811;122685;-75
2023/04/16 11:23:29;;;;;;;13.47;12.10;;;11.00;60.90;;;;;;20791;6811;118173;-71
2023/04/16 11:25:57;;;;;;;13.17;11.87;;;10.90;62.00;;;;;;20824;6811;117827;-71
2023/04/16 11:28:31;;;;;;;17.67;16.05;;;10.80;61.90;;;;;;20616;6811;344856;-71
2023/04/16 11:30:57;;;;;;;17.55;15.88;;;11.20;61.80;;;;;;20600;6811;306228;-71
2023/04/16 11:33:23;;;;;;;19.57;17.57;;;11.70;60.00;;;;;;20748;6826;119054;-72
2023/04/16 11:35:49;;;;;;;16.42;15.02;;;11.80;60.10;;;;;;20596;6811;337122;-72
2023/04/16 11:38:15;;;;;;;15.93;14.52;;;11.90;59.00;;;;;;20574;6811;307010;-72
2023/04/16 11:40:41;;;;;;;14.20;13.10;;;12.50;56.70;;;;;;20594;6811;294251;-72
2023/04/16 11:43:13;;;;;;;13.20;12.00;;;12.50;56.70;;;;;;20736;6811;117447;-71
2023/04/16 11:45:39;;;;;;;12.67;11.47;;;12.40;57.00;;;;;;20746;6811;118026;-73
2023/04/16 11:48:05;;;;;;;14.02;12.90;;;12.10;58.00;;;;;;20495;6811;282030;-72
2023/04/16 11:50:31;;;;;;;13.57;12.52;;;12.20;58.20;;;;;;20595;6811;332720;-73
2023/04/16 11:52:56;;;;;;;10.37;9.57;;;12.40;57.50;;;;;;20812;6811;117590;-72
2023/04/16 11:55:21;;;;;;;11.57;10.68;;;12.40;57.90;;;;;;20520;6811;307530;-71
2023/04/16 11:57:48;;;;;;;10.13;9.30;;;12.50;56.70;;;;;;20761;6811;117632;-70
2023/04/16 12:00:14;;;;;;;11.87;10.87;;;12.40;56.80;;;;;;20576;6811;279706;-70
2023/04/16 12:02:42;;;;;;;9.83;8.97;;;12.40;56.40;;;;;;20783;6811;119609;-71
2023/04/16 12:05:31;;;;;;;9.20;8.37;;;12.30;56.90;;;;;;20724;6811;117495;-71
2023/04/16 12:07:56;;;;;;;9.53;8.73;;;12.00;57.80;;;;;;20791;6811;117235;-75
2023/04/16 12:10:22;;;;;;;11.07;10.18;;;11.80;58.90;;;;;;20574;6811;277652;-71
2023/04/16 12:12:47;;;;;;;10.77;9.97;;;11.90;58.40;;;;;;20613;6811;307608;-71
2023/04/16 12:15:14;;;;;;;10.33;9.53;;;12.20;58.20;;;;;;20610;6811;312463;-72
2023/04/16 12:17:40;;;;;;;8.90;8.00;;;12.50;56.80;;;;;;20806;6811;123507;-71
2023/04/16 12:20:12;;;;;;;10.10;9.40;;;12.40;57.50;;;;;;20625;6811;307928;-74
2023/04/16 12:22:45;;;;;;;8.30;7.63;;;12.40;57.20;;;;;;20824;6811;120439;-74